Time;durP1;ratioP1;P1;durP2;ratioP2;P2;SDS_P1;SDS_P2;PMS_P1;PMS_P2;Temp;Humidity;BMP_temperature;BMP_pressure;BME280_temperature;BME280_humidity;BME280_pressure;Samples;Min_cycle;Max_cycle;Signal;HPM_P1;HPM_P2
2023/12/29 00:01:47;;;;;;;15.70;5.55;;;;;;;;;;5101899;28;20491;-66
2023/12/29 00:04:13;;;;;;;27.17;6.97;;;;;;;;;;5121172;28;20039;-66
2023/12/29 00:06:39;;;;;;;17.08;6.90;;;;;;;;;;5103953;28;20566;-65
2023/12/29 00:09:05;;;;;;;17.70;6.50;;;;;;;;;;5122232;28;20041;-65
2023/12/29 00:11:31;;;;;;;21.10;6.38;;;;;;;;;;5121596;28;20410;-65
2023/12/29 00:13:57;;;;;;;16.70;5.80;;;;;;;;;;5123037;28;20206;-67
2023/12/29 00:16:23;;;;;;;17.17;5.63;;;;;;;;;;5121116;27;20050;-64
2023/12/29 00:18:50;;;;;;;10.50;5.38;;;;;;;;;;5121979;28;20039;-65
2023/12/29 00:21:16;;;;;;;20.15;5.93;;;;;;;;;;5121244;28;20031;-65
2023/12/29 00:23:42;;;;;;;15.68;6.15;;;;;;;;;;5122367;27;20043;-66
2023/12/29 00:26:08;;;;;;;13.80;6.65;;;;;;;;;;5102072;28;20039;-65
2023/12/29 00:28:36;;;;;;;19.85;6.20;;;;;;;;;;5122305;28;20049;-66
2023/12/29 00:31:03;;;;;;;20.70;6.45;;;;;;;;;;5122588;27;20329;-66
2023/12/29 00:33:29;;;;;;;15.30;6.38;;;;;;;;;;5122169;28;20494;-65
2023/12/29 00:35:55;;;;;;;23.13;6.82;;;;;;;;;;5122948;28;20063;-65
2023/12/29 00:38:22;;;;;;;22.73;6.07;;;;;;;;;;5122359;27;20136;-64
2023/12/29 00:40:48;;;;;;;10.00;4.53;;;;;;;;;;5121832;28;20474;-66
2023/12/29 00:43:14;;;;;;;18.67;6.47;;;;;;;;;;5122643;28;20099;-65
2023/12/29 00:45:40;;;;;;;16.17;6.93;;;;;;;;;;5103630;28;20045;-65
2023/12/29 00:48:06;;;;;;;19.98;7.15;;;;;;;;;;5122258;28;20288;-66
2023/12/29 00:50:32;;;;;;;15.77;5.07;;;;;;;;;;5123100;27;20389;-65
2023/12/29 00:52:58;;;;;;;17.75;5.32;;;;;;;;;;5121827;28;20035;-66
2023/12/29 00:55:24;;;;;;;14.57;5.65;;;;;;;;;;5102989;28;20578;-66
2023/12/29 00:57:51;;;;;;;21.02;6.50;;;;;;;;;;5122540;27;20031;-65
2023/12/29 01:00:17;;;;;;;24.40;7.22;;;;;;;;;;5122770;28;20414;-66
2023/12/29 01:02:43;;;;;;;14.50;6.05;;;;;;;;;;5103974;27;20061;-66
2023/12/29 01:05:09;;;;;;;15.43;5.35;;;;;;;;;;5126418;27;20438;-66
2023/12/29 01:07:35;;;;;;;14.45;5.30;;;;;;;;;;5125349;27;20038;-65
2023/12/29 01:10:01;;;;;;;20.13;6.07;;;;;;;;;;5126904;27;20038;-65
2023/12/29 01:12:27;;;;;;;16.38;6.40;;;;;;;;;;5125375;27;20117;-66
2023/12/29 01:14:53;;;;;;;18.50;5.82;;;;;;;;;;5126226;27;20046;-65
2023/12/29 01:17:22;;;;;;;19.75;7.07;;;;;;;;;;5125919;27;20046;-65
2023/12/29 01:19:48;;;;;;;20.35;6.07;;;;;;;;;;5126068;27;20051;-65
2023/12/29 01:22:14;;;;;;;15.60;6.55;;;;;;;;;;5124834;27;20046;-66
2023/12/29 01:24:40;;;;;;;15.10;5.75;;;;;;;;;;5125389;27;20043;-65
2023/12/29 01:27:06;;;;;;;13.73;5.55;;;;;;;;;;5123803;27;20043;-65
2023/12/29 01:29:32;;;;;;;16.95;5.32;;;;;;;;;;5125227;27;20035;-65
2023/12/29 01:31:58;;;;;;;24.80;6.32;;;;;;;;;;5105887;27;20035;-64
2023/12/29 01:34:32;;;;;;;32.30;7.15;;;;;;;;;;5124213;27;20050;-65
2023/12/29 01:36:58;;;;;;;20.20;6.90;;;;;;;;;;5124654;27;20066;-66
2023/12/29 01:39:24;;;;;;;16.85;6.78;;;;;;;;;;5126222;27;20097;-64
2023/12/29 01:41:50;;;;;;;21.42;7.43;;;;;;;;;;5124439;27;20752;-66
2023/12/29 01:44:20;;;;;;;16.45;5.70;;;;;;;;;;5125708;27;20071;-65
2023/12/29 01:46:48;;;;;;;17.38;6.07;;;;;;;;;;5125360;27;20074;-65
2023/12/29 01:49:17;;;;;;;16.38;6.25;;;;;;;;;;5125433;27;20720;-65
2023/12/29 01:51:44;;;;;;;17.75;6.20;;;;;;;;;;5124383;27;20050;-65
2023/12/29 01:54:11;;;;;;;20.80;6.00;;;;;;;;;;5124810;27;20457;-65
2023/12/29 01:56:38;;;;;;;13.18;5.78;;;;;;;;;;5124383;27;20043;-66
2023/12/29 01:59:04;;;;;;;9.85;4.10;;;;;;;;;;5106313;27;20051;-65
2023/12/29 02:01:30;;;;;;;17.15;5.13;;;;;;;;;;5125290;27;20045;-66
2023/12/29 02:03:57;;;;;;;14.68;4.82;;;;;;;;;;5124280;27;20421;-66
2023/12/29 02:06:24;;;;;;;12.07;4.65;;;;;;;;;;5124665;27;20415;-65
2023/12/29 02:08:51;;;;;;;15.32;4.95;;;;;;;;;;5123649;27;20043;-65
2023/12/29 02:11:18;;;;;;;9.85;3.92;;;;;;;;;;5124078;27;20345;-66
2023/12/29 02:13:44;;;;;;;16.45;5.28;;;;;;;;;;5124517;27;20047;-65
2023/12/29 02:16:17;;;;;;;14.20;5.00;;;;;;;;;;5122291;27;20075;-65
2023/12/29 02:18:46;;;;;;;17.05;6.57;;;;;;;;;;5123770;27;20430;-65
2023/12/29 02:21:13;;;;;;;11.98;4.38;;;;;;;;;;5124521;27;20031;-66
2023/12/29 02:23:39;;;;;;;12.55;5.47;;;;;;;;;;5123541;27;20226;-65
2023/12/29 02:26:10;;;;;;;17.80;4.82;;;;;;;;;;5124959;27;20050;-65
2023/12/29 02:28:40;;;;;;;19.63;4.85;;;;;;;;;;5124820;27;20065;-65
2023/12/29 02:31:10;;;;;;;11.70;4.53;;;;;;;;;;5125071;27;20047;-65
2023/12/29 02:33:39;;;;;;;25.20;5.60;;;;;;;;;;5124524;27;20043;-64
2023/12/29 02:36:06;;;;;;;18.02;5.13;;;;;;;;;;5124064;27;20154;-65
2023/12/29 02:38:32;;;;;;;13.68;5.72;;;;;;;;;;5124930;27;20085;-65
2023/12/29 02:40:59;;;;;;;19.70;5.55;;;;;;;;;;5105396;27;20043;-65
2023/12/29 02:43:25;;;;;;;14.63;5.05;;;;;;;;;;5105218;27;20046;-65
2023/12/29 02:45:51;;;;;;;20.67;5.63;;;;;;;;;;5124523;27;20114;-66
2023/12/29 02:48:17;;;;;;;17.15;6.10;;;;;;;;;;5123922;27;20507;-65
2023/12/29 02:50:43;;;;;;;16.20;6.95;;;;;;;;;;5123457;27;20290;-65
2023/12/29 02:53:09;;;;;;;20.40;5.70;;;;;;;;;;5122656;27;20035;-65
2023/12/29 02:55:36;;;;;;;21.02;6.07;;;;;;;;;;5124023;27;20047;-65
2023/12/29 02:58:02;;;;;;;18.15;7.10;;;;;;;;;;5123514;27;20524;-66
2023/12/29 03:00:28;;;;;;;22.40;6.95;;;;;;;;;;5124859;27;20135;-65
2023/12/29 03:02:55;;;;;;;32.35;7.75;;;;;;;;;;5122856;27;20137;-65
2023/12/29 03:05:21;;;;;;;19.42;6.07;;;;;;;;;;5124301;27;20200;-66
2023/12/29 03:07:47;;;;;;;26.15;7.05;;;;;;;;;;5104240;27;20058;-66
2023/12/29 03:10:13;;;;;;;22.80;6.57;;;;;;;;;;5105032;27;20148;-65
2023/12/29 03:12:40;;;;;;;13.40;6.57;;;;;;;;;;5123506;27;20070;-66
2023/12/29 03:15:06;;;;;;;17.00;7.57;;;;;;;;;;5120829;27;20066;-65
2023/12/29 03:17:32;;;;;;;37.20;8.43;;;;;;;;;;5124691;27;20047;-64
2023/12/29 03:19:59;;;;;;;22.95;7.72;;;;;;;;;;5122782;27;20065;-64
2023/12/29 03:22:25;;;;;;;24.70;10.00;;;;;;;;;;5122677;27;20133;-64
2023/12/29 03:24:51;;;;;;;27.27;8.40;;;;;;;;;;5102404;27;20031;-64
2023/12/29 03:27:17;;;;;;;20.48;7.63;;;;;;;;;;5122409;27;20043;-64
2023/12/29 03:29:43;;;;;;;24.80;6.45;;;;;;;;;;5104220;27;20179;-64
2023/12/29 03:32:09;;;;;;;23.92;7.68;;;;;;;;;;5123210;27;20099;-65
2023/12/29 03:34:35;;;;;;;26.90;9.02;;;;;;;;;;5122611;27;20110;-64
2023/12/29 03:37:01;;;;;;;33.10;8.63;;;;;;;;;;5122775;27;20092;-65
2023/12/29 03:39:27;;;;;;;24.27;6.85;;;;;;;;;;5123411;27;20148;-66
2023/12/29 03:41:53;;;;;;;23.60;6.70;;;;;;;;;;5122753;27;20123;-65
2023/12/29 03:44:20;;;;;;;21.10;8.95;;;;;;;;;;5123104;27;20079;-63
2023/12/29 03:46:46;;;;;;;23.48;7.50;;;;;;;;;;5123431;27;20190;-64
2023/12/29 03:49:12;;;;;;;21.30;6.75;;;;;;;;;;5122072;27;20054;-65
2023/12/29 03:51:38;;;;;;;24.52;6.35;;;;;;;;;;5122879;27;20054;-64
2023/12/29 03:54:05;;;;;;;21.25;7.00;;;;;;;;;;5122513;27;20035;-65
2023/12/29 03:56:31;;;;;;;27.52;7.45;;;;;;;;;;5122705;27;20058;-65
2023/12/29 03:58:57;;;;;;;18.13;8.20;;;;;;;;;;5104259;28;20043;-64
2023/12/29 04:01:25;;;;;;;15.45;5.65;;;;;;;;;;5123028;27;20422;-65
2023/12/29 04:03:51;;;;;;;17.67;6.95;;;;;;;;;;5121998;28;20046;-65
2023/12/29 04:06:17;;;;;;;18.90;6.68;;;;;;;;;;5123994;28;20362;-65
2023/12/29 04:08:43;;;;;;;23.60;6.22;;;;;;;;;;5122830;28;20131;-65
2023/12/29 04:11:10;;;;;;;23.17;6.80;;;;;;;;;;5102370;28;20644;-66
2023/12/29 04:13:36;;;;;;;15.52;5.85;;;;;;;;;;5122295;27;20050;-65
2023/12/29 04:16:02;;;;;;;17.15;5.63;;;;;;;;;;5122299;27;20130;-65
2023/12/29 04:18:29;;;;;;;15.02;6.07;;;;;;;;;;5122546;27;20119;-65
2023/12/29 04:20:55;;;;;;;18.83;7.28;;;;;;;;;;5123049;28;20039;-65
2023/12/29 04:23:21;;;;;;;21.33;6.32;;;;;;;;;;5122786;28;20039;-65
2023/12/29 04:25:47;;;;;;;18.80;5.60;;;;;;;;;;5123372;28;20615;-65
2023/12/29 04:28:13;;;;;;;15.68;5.38;;;;;;;;;;5121536;28;20050;-65
2023/12/29 04:30:39;;;;;;;20.40;6.78;;;;;;;;;;5122618;28;20143;-65
2023/12/29 04:33:06;;;;;;;17.08;5.70;;;;;;;;;;5104857;28;20088;-65
2023/12/29 04:35:33;;;;;;;17.13;4.78;;;;;;;;;;5122440;27;20112;-65
2023/12/29 04:37:59;;;;;;;27.67;6.50;;;;;;;;;;5126401;27;20047;-65
2023/12/29 04:40:25;;;;;;;21.08;7.60;;;;;;;;;;5126162;27;20031;-64
2023/12/29 04:42:51;;;;;;;16.60;5.85;;;;;;;;;;5126124;27;20166;-64
2023/12/29 04:45:17;;;;;;;28.88;7.25;;;;;;;;;;5126136;27;20065;-65
2023/12/29 04:47:43;;;;;;;14.15;5.35;;;;;;;;;;5127125;27;20053;-65
2023/12/29 04:50:10;;;;;;;15.40;7.13;;;;;;;;;;5126593;27;20046;-66
2023/12/29 04:52:36;;;;;;;15.55;5.25;;;;;;;;;;5125960;27;20035;-64
2023/12/29 04:55:02;;;;;;;27.38;6.25;;;;;;;;;;5126977;27;20050;-65
2023/12/29 04:57:28;;;;;;;15.32;6.03;;;;;;;;;;5125366;27;20043;-66
2023/12/29 04:59:54;;;;;;;24.30;7.55;;;;;;;;;;5126679;27;20035;-65
2023/12/29 05:02:21;;;;;;;23.02;6.47;;;;;;;;;;5107010;27;20411;-65
2023/12/29 05:04:47;;;;;;;27.58;7.60;;;;;;;;;;5126321;27;20034;-65
2023/12/29 05:07:13;;;;;;;20.02;6.15;;;;;;;;;;5106225;27;20062;-65
2023/12/29 05:09:39;;;;;;;21.42;6.68;;;;;;;;;;5127093;27;20172;-64
2023/12/29 05:12:05;;;;;;;17.35;6.45;;;;;;;;;;5125095;27;20049;-66
2023/12/29 05:14:31;;;;;;;20.00;5.82;;;;;;;;;;5126594;27;20035;-64
2023/12/29 05:16:57;;;;;;;21.50;6.43;;;;;;;;;;5125945;27;20031;-65
2023/12/29 05:19:23;;;;;;;27.77;7.18;;;;;;;;;;5125857;27;20117;-65
2023/12/29 05:21:51;;;;;;;17.98;6.30;;;;;;;;;;5105607;27;21094;-65
2023/12/29 05:24:18;;;;;;;23.02;6.05;;;;;;;;;;5126625;27;20047;-66
2023/12/29 05:26:44;;;;;;;19.17;7.00;;;;;;;;;;5125506;27;20043;-64
2023/12/29 05:29:10;;;;;;;15.35;4.72;;;;;;;;;;5126025;27;20099;-64
2023/12/29 05:31:36;;;;;;;22.30;6.90;;;;;;;;;;5125439;27;20458;-65
2023/12/29 05:34:02;;;;;;;15.85;5.15;;;;;;;;;;5106763;27;20054;-65
2023/12/29 05:36:28;;;;;;;29.17;8.38;;;;;;;;;;5125827;27;20051;-65
2023/12/29 05:38:56;;;;;;;14.63;5.95;;;;;;;;;;5125277;27;20374;-65
2023/12/29 05:41:22;;;;;;;17.20;5.85;;;;;;;;;;5124596;27;20118;-65
2023/12/29 05:43:48;;;;;;;23.50;6.93;;;;;;;;;;5106595;27;20220;-65
2023/12/29 05:46:14;;;;;;;25.70;8.02;;;;;;;;;;5126149;27;20106;-66
2023/12/29 05:48:41;;;;;;;19.98;5.65;;;;;;;;;;5106118;27;20047;-64
2023/12/29 05:51:10;;;;;;;16.17;5.28;;;;;;;;;;5125510;27;20063;-65
2023/12/29 05:53:37;;;;;;;21.27;6.57;;;;;;;;;;5124639;27;20062;-65
2023/12/29 05:56:03;;;;;;;20.42;5.57;;;;;;;;;;5125269;27;20079;-65
2023/12/29 05:58:29;;;;;;;18.73;6.60;;;;;;;;;;5125704;27;20039;-65
2023/12/29 06:00:56;;;;;;;23.65;6.68;;;;;;;;;;5122913;27;20103;-65
2023/12/29 06:03:22;;;;;;;21.20;6.07;;;;;;;;;;5101802;27;20043;-66
2023/12/29 06:05:49;;;;;;;14.50;6.50;;;;;;;;;;5122711;27;20046;-64
2023/12/29 06:08:15;;;;;;;19.92;6.30;;;;;;;;;;5122489;27;20062;-65
2023/12/29 06:10:41;;;;;;;21.83;6.25;;;;;;;;;;5122250;27;20115;-64
2023/12/29 06:13:07;;;;;;;16.50;5.80;;;;;;;;;;5118689;27;20165;-64
2023/12/29 06:15:33;;;;;;;21.25;7.25;;;;;;;;;;5118925;27;20043;-64
2023/12/29 06:17:59;;;;;;;16.67;6.65;;;;;;;;;;5122247;27;20062;-65
2023/12/29 06:20:25;;;;;;;25.25;6.55;;;;;;;;;;5101774;27;20077;-64
2023/12/29 06:22:52;;;;;;;14.68;6.43;;;;;;;;;;5120479;27;20115;-65
2023/12/29 06:25:18;;;;;;;11.95;4.70;;;;;;;;;;5121253;27;20053;-65
2023/12/29 06:27:44;;;;;;;17.80;5.57;;;;;;;;;;5120989;27;20043;-65
2023/12/29 06:30:10;;;;;;;27.00;7.40;;;;;;;;;;5120071;27;20492;-65
2023/12/29 06:32:37;;;;;;;23.83;6.47;;;;;;;;;;5104524;27;20050;-64
2023/12/29 06:35:04;;;;;;;24.55;5.72;;;;;;;;;;5124606;27;20043;-66
2023/12/29 06:37:30;;;;;;;19.38;7.18;;;;;;;;;;5123588;27;20055;-65
2023/12/29 06:39:56;;;;;;;24.60;7.53;;;;;;;;;;5118945;27;20039;-64
2023/12/29 06:42:22;;;;;;;22.38;7.07;;;;;;;;;;5117680;27;20199;-64
2023/12/29 06:44:48;;;;;;;26.30;7.70;;;;;;;;;;5121029;27;20046;-64
2023/12/29 06:47:15;;;;;;;16.70;5.57;;;;;;;;;;5121400;27;20154;-65
2023/12/29 06:49:41;;;;;;;17.55;6.82;;;;;;;;;;5137291;27;20121;-66
2023/12/29 06:52:07;;;;;;;21.92;6.55;;;;;;;;;;5120976;27;20043;-64
2023/12/29 06:54:36;;;;;;;16.15;5.72;;;;;;;;;;5100297;27;20046;-65
2023/12/29 06:57:02;;;;;;;18.67;5.53;;;;;;;;;;5119164;27;20481;-66
2023/12/29 06:59:28;;;;;;;17.45;6.32;;;;;;;;;;5121300;27;20043;-65
2023/12/29 07:01:55;;;;;;;16.30;5.65;;;;;;;;;;5120187;27;20381;-66
2023/12/29 07:04:21;;;;;;;18.30;8.10;;;;;;;;;;5121514;27;20068;-65
2023/12/29 07:06:47;;;;;;;19.50;6.85;;;;;;;;;;5119498;27;20038;-66
2023/12/29 07:09:13;;;;;;;19.95;6.65;;;;;;;;;;5120360;27;20038;-65
2023/12/29 07:11:39;;;;;;;22.90;8.60;;;;;;;;;;5118503;27;20344;-65
2023/12/29 07:14:05;;;;;;;14.00;4.53;;;;;;;;;;5102790;27;21425;-65
2023/12/29 07:16:31;;;;;;;19.10;7.22;;;;;;;;;;5101939;27;20039;-64
2023/12/29 07:18:58;;;;;;;24.42;7.20;;;;;;;;;;5119751;27;20066;-65
2023/12/29 07:21:24;;;;;;;16.88;7.20;;;;;;;;;;5119291;27;20119;-65
2023/12/29 07:23:50;;;;;;;26.33;6.45;;;;;;;;;;5119183;27;20035;-64
2023/12/29 07:26:16;;;;;;;21.60;8.20;;;;;;;;;;5101152;27;20039;-65
2023/12/29 07:28:42;;;;;;;20.38;6.03;;;;;;;;;;5099195;27;20043;-66
2023/12/29 07:31:08;;;;;;;25.48;8.40;;;;;;;;;;5120275;27;20069;-65
2023/12/29 07:33:34;;;;;;;19.70;6.93;;;;;;;;;;5120233;27;20051;-63
2023/12/29 07:36:01;;;;;;;24.15;8.15;;;;;;;;;;5118592;27;20602;-64
2023/12/29 07:38:27;;;;;;;28.65;6.95;;;;;;;;;;5118266;27;20047;-64
2023/12/29 07:40:53;;;;;;;19.15;6.60;;;;;;;;;;5119209;27;20039;-65
2023/12/29 07:43:19;;;;;;;22.75;6.18;;;;;;;;;;5119215;27;20039;-65
2023/12/29 07:45:45;;;;;;;17.55;6.53;;;;;;;;;;5119341;27;20466;-65
2023/12/29 07:48:11;;;;;;;20.63;6.32;;;;;;;;;;5119148;27;20409;-65
2023/12/29 07:50:37;;;;;;;16.08;6.57;;;;;;;;;;5097846;27;20478;-66
2023/12/29 07:53:05;;;;;;;22.48;6.10;;;;;;;;;;5119921;27;20046;-65
2023/12/29 07:55:32;;;;;;;18.58;6.43;;;;;;;;;;5120229;27;20451;-66
2023/12/29 07:57:58;;;;;;;26.65;6.85;;;;;;;;;;5120075;27;20394;-66
2023/12/29 08:00:24;;;;;;;21.83;7.53;;;;;;;;;;5119888;27;20050;-66
2023/12/29 08:02:51;;;;;;;21.15;7.40;;;;;;;;;;5119559;27;20046;-66
2023/12/29 08:05:17;;;;;;;27.52;6.68;;;;;;;;;;5120177;27;20459;-66
2023/12/29 08:07:43;;;;;;;17.40;6.22;;;;;;;;;;5119566;27;20039;-66
2023/12/29 08:10:10;;;;;;;19.05;5.35;;;;;;;;;;5117915;28;20566;-65
2023/12/29 08:12:36;;;;;;;20.35;6.53;;;;;;;;;;5119859;27;20194;-66
2023/12/29 08:15:03;;;;;;;16.42;6.90;;;;;;;;;;5122855;27;20091;-65
2023/12/29 08:17:31;;;;;;;20.50;5.40;;;;;;;;;;5123761;27;20123;-66
2023/12/29 08:19:57;;;;;;;19.60;6.70;;;;;;;;;;5124767;27;20062;-66
2023/12/29 08:22:23;;;;;;;22.83;7.30;;;;;;;;;;5124265;27;20034;-65
2023/12/29 08:24:49;;;;;;;23.98;6.07;;;;;;;;;;5125075;27;20128;-65
2023/12/29 08:27:15;;;;;;;16.23;6.85;;;;;;;;;;5124478;27;20039;-65
2023/12/29 08:29:41;;;;;;;24.63;5.95;;;;;;;;;;5124343;27;20043;-65
2023/12/29 08:32:08;;;;;;;20.77;5.85;;;;;;;;;;5124310;27;20047;-65
2023/12/29 08:34:34;;;;;;;14.63;6.57;;;;;;;;;;5123731;27;20082;-66
2023/12/29 08:37:00;;;;;;;18.88;7.20;;;;;;;;;;5122287;27;20055;-66
2023/12/29 08:39:26;;;;;;;16.58;6.28;;;;;;;;;;5123973;27;20652;-66
2023/12/29 08:41:52;;;;;;;17.67;6.45;;;;;;;;;;5122847;27;20133;-65
2023/12/29 08:44:19;;;;;;;22.38;5.53;;;;;;;;;;5123580;27;20043;-66
2023/12/29 08:46:45;;;;;;;17.95;5.40;;;;;;;;;;5123623;27;20046;-66
2023/12/29 08:49:11;;;;;;;18.25;5.72;;;;;;;;;;5123710;27;20043;-65
2023/12/29 08:51:37;;;;;;;17.30;6.93;;;;;;;;;;5122045;27;20035;-65
2023/12/29 08:54:03;;;;;;;16.13;6.80;;;;;;;;;;5103994;27;20047;-65
2023/12/29 08:56:29;;;;;;;24.38;6.15;;;;;;;;;;5124322;27;20191;-64
2023/12/29 08:58:56;;;;;;;13.38;5.25;;;;;;;;;;5105034;27;20099;-64
2023/12/29 09:01:22;;;;;;;15.90;3.92;;;;;;;;;;5104612;27;20046;-65
2023/12/29 09:03:48;;;;;;;18.50;7.10;;;;;;;;;;5124089;27;20455;-65
2023/12/29 09:06:14;;;;;;;18.02;5.45;;;;;;;;;;5123329;27;20113;-64
2023/12/29 09:08:40;;;;;;;12.65;4.43;;;;;;;;;;5123239;27;20050;-66
2023/12/29 09:11:06;;;;;;;17.73;5.85;;;;;;;;;;5119956;27;20039;-65
2023/12/29 09:13:32;;;;;;;15.30;6.00;;;;;;;;;;5121947;27;20642;-65
2023/12/29 09:15:59;;;;;;;17.80;4.90;;;;;;;;;;5104002;27;20620;-66
2023/12/29 09:18:25;;;;;;;22.27;7.93;;;;;;;;;;5123085;27;20453;-66
2023/12/29 09:20:52;;;;;;;20.83;5.72;;;;;;;;;;5085768;27;20164;-66
2023/12/29 09:23:18;;;;;;;14.18;5.90;;;;;;;;;;5120852;27;20039;-66
2023/12/29 09:25:44;;;;;;;17.02;6.55;;;;;;;;;;5104793;27;20047;-66
2023/12/29 09:28:10;;;;;;;18.05;5.82;;;;;;;;;;5122874;27;20928;-66
2023/12/29 09:30:37;;;;;;;12.40;5.57;;;;;;;;;;5121312;27;20134;-66
2023/12/29 09:33:03;;;;;;;17.50;5.60;;;;;;;;;;5121662;27;20176;-65
2023/12/29 09:35:29;;;;;;;22.25;6.82;;;;;;;;;;5121782;27;20165;-65
2023/12/29 09:37:56;;;;;;;17.55;6.35;;;;;;;;;;5120116;27;20113;-66
2023/12/29 09:40:22;;;;;;;18.45;4.90;;;;;;;;;;5120810;27;20110;-67
2023/12/29 09:42:48;;;;;;;17.25;5.03;;;;;;;;;;5121990;27;20506;-65
2023/12/29 09:45:16;;;;;;;25.40;5.20;;;;;;;;;;5123088;27;20438;-65
2023/12/29 09:47:43;;;;;;;15.88;4.47;;;;;;;;;;5123072;27;20042;-64
2023/12/29 09:50:13;;;;;;;16.90;6.50;;;;;;;;;;5123551;27;20050;-65
2023/12/29 09:52:40;;;;;;;17.58;4.68;;;;;;;;;;5121061;27;20045;-66
2023/12/29 09:55:10;;;;;;;19.02;6.57;;;;;;;;;;5123117;27;20445;-65
2023/12/29 09:57:40;;;;;;;18.83;5.05;;;;;;;;;;5121539;27;20051;-65
2023/12/29 10:00:07;;;;;;;23.45;5.38;;;;;;;;;;5121014;27;20096;-68
2023/12/29 10:02:33;;;;;;;12.25;4.28;;;;;;;;;;5120690;27;20039;-68
2023/12/29 10:05:02;;;;;;;17.52;4.50;;;;;;;;;;5103143;27;20176;-65
2023/12/29 10:07:30;;;;;;;18.20;5.97;;;;;;;;;;5098452;27;20039;-66
2023/12/29 10:09:58;;;;;;;10.55;4.47;;;;;;;;;;5123709;27;20066;-66
2023/12/29 10:12:24;;;;;;;13.27;3.92;;;;;;;;;;5120688;27;20054;-68
2023/12/29 10:14:57;;;;;;;11.02;4.10;;;;;;;;;;5121455;27;20969;-66
2023/12/29 10:17:29;;;;;;;15.35;3.95;;;;;;;;;;5118130;27;20043;-66
2023/12/29 10:20:10;;;;;;;11.27;4.88;;;;;;;;;;5121680;27;20080;-63
2023/12/29 10:22:42;;;;;;;8.88;4.30;;;;;;;;;;5119902;27;20043;-66
2023/12/29 10:25:09;;;;;;;15.65;5.22;;;;;;;;;;5102666;27;20043;-66
2023/12/29 10:27:35;;;;;;;12.50;4.07;;;;;;;;;;5119978;27;21059;-66
2023/12/29 10:30:03;;;;;;;13.50;3.95;;;;;;;;;;5123151;27;20089;-66
2023/12/29 10:32:30;;;;;;;12.70;5.28;;;;;;;;;;5122995;27;20627;-66
2023/12/29 10:35:25;;;;;;;15.23;5.18;;;;;;;;;;5123052;27;20588;-66
2023/12/29 10:37:51;;;;;;;14.25;4.68;;;;;;;;;;5096988;27;20865;-65
2023/12/29 10:40:21;;;;;;;17.52;3.85;;;;;;;;;;5123637;27;20533;-65
2023/12/29 10:42:57;;;;;;;22.02;4.53;;;;;;;;;;5104278;27;20099;-65
2023/12/29 10:45:26;;;;;;;11.73;4.10;;;;;;;;;;5123800;27;20043;-64
2023/12/29 10:47:52;;;;;;;12.15;4.57;;;;;;;;;;5123150;27;20039;-65
2023/12/29 10:50:18;;;;;;;12.20;4.30;;;;;;;;;;5124577;27;20757;-65
2023/12/29 10:52:46;;;;;;;14.88;3.63;;;;;;;;;;5121691;27;20511;-65
2023/12/29 10:55:12;;;;;;;12.68;4.25;;;;;;;;;;5124207;27;20096;-67
2023/12/29 10:57:39;;;;;;;8.20;3.35;;;;;;;;;;5123056;27;20054;-64
2023/12/29 11:00:08;;;;;;;15.57;4.20;;;;;;;;;;5123585;27;20484;-65
2023/12/29 11:02:35;;;;;;;11.25;3.67;;;;;;;;;;5121814;27;20039;-66
2023/12/29 11:05:06;;;;;;;16.55;4.70;;;;;;;;;;5123090;27;20047;-66
2023/12/29 11:07:39;;;;;;;11.63;5.55;;;;;;;;;;5119769;27;20126;-66
2023/12/29 11:10:07;;;;;;;16.95;4.68;;;;;;;;;;5124243;27;20502;-65
2023/12/29 11:12:34;;;;;;;15.55;3.97;;;;;;;;;;5123273;27;20062;-65
2023/12/29 11:15:05;;;;;;;16.20;5.10;;;;;;;;;;5103686;27;20035;-64
2023/12/29 11:17:32;;;;;;;11.82;3.88;;;;;;;;;;5123098;27;20031;-64
2023/12/29 11:20:00;;;;;;;14.60;4.47;;;;;;;;;;5122457;27;20460;-65
2023/12/29 11:22:28;;;;;;;9.05;4.05;;;;;;;;;;5122361;27;20565;-65
2023/12/29 11:24:54;;;;;;;10.50;4.15;;;;;;;;;;5123474;27;20430;-64
2023/12/29 11:27:21;;;;;;;9.43;3.85;;;;;;;;;;5122181;27;20567;-65
2023/12/29 11:29:48;;;;;;;16.38;5.18;;;;;;;;;;5123044;27;20432;-65
2023/12/29 11:32:20;;;;;;;8.30;3.53;;;;;;;;;;5122895;27;20156;-65
2023/12/29 11:34:59;;;;;;;11.43;3.78;;;;;;;;;;5123623;27;20083;-64
2023/12/29 11:37:45;;;;;;;12.23;3.80;;;;;;;;;;5121079;27;20138;-64
2023/12/29 11:40:18;;;;;;;8.65;3.15;;;;;;;;;;5123099;27;20118;-65
2023/12/29 11:42:45;;;;;;;12.88;4.15;;;;;;;;;;5122696;27;20047;-66
2023/12/29 11:45:32;;;;;;;9.13;3.67;;;;;;;;;;5120852;27;20520;-65
2023/12/29 11:48:02;;;;;;;9.77;3.80;;;;;;;;;;5102687;27;20062;-66
2023/12/29 11:50:32;;;;;;;10.07;3.67;;;;;;;;;;5102975;27;20050;-65
2023/12/29 11:52:58;;;;;;;10.23;3.67;;;;;;;;;;5119444;27;20035;-65
2023/12/29 11:55:32;;;;;;;10.65;5.10;;;;;;;;;;5121933;27;20039;-65
2023/12/29 11:57:58;;;;;;;8.48;3.78;;;;;;;;;;5121969;27;20047;-65
2023/12/29 12:00:46;;;;;;;14.65;4.10;;;;;;;;;;5103232;27;20032;-65
2023/12/29 12:03:25;;;;;;;10.63;3.75;;;;;;;;;;5121806;27;20522;-65
2023/12/29 12:05:52;;;;;;;7.20;3.75;;;;;;;;;;5122015;27;20502;-65
2023/12/29 12:08:35;;;;;;;12.98;4.03;;;;;;;;;;5120440;27;20049;-66
2023/12/29 12:11:20;;;;;;;10.07;3.28;;;;;;;;;;5121345;27;20255;-65
2023/12/29 12:13:47;;;;;;;7.72;3.22;;;;;;;;;;5085182;27;20121;-65
2023/12/29 12:16:32;;;;;;;6.95;3.53;;;;;;;;;;5123124;27;20462;-65
2023/12/29 12:18:59;;;;;;;10.93;3.92;;;;;;;;;;5122381;27;20046;-64
2023/12/29 12:21:25;;;;;;;9.32;3.70;;;;;;;;;;5122056;27;20447;-65
2023/12/29 12:23:53;;;;;;;12.73;3.97;;;;;;;;;;5101326;27;21182;-65
2023/12/29 12:26:21;;;;;;;9.73;3.85;;;;;;;;;;5122851;28;20047;-65
2023/12/29 12:28:47;;;;;;;14.40;4.00;;;;;;;;;;5121448;27;20387;-66
2023/12/29 12:31:13;;;;;;;7.95;3.47;;;;;;;;;;5121074;28;20519;-65
2023/12/29 12:33:39;;;;;;;14.30;4.35;;;;;;;;;;5121556;28;20381;-64
2023/12/29 12:36:06;;;;;;;9.07;4.13;;;;;;;;;;5116467;27;20051;-65
2023/12/29 12:38:33;;;;;;;7.50;3.55;;;;;;;;;;5101347;28;20035;-65
2023/12/29 12:41:11;;;;;;;11.00;3.83;;;;;;;;;;5120615;27;20043;-64
2023/12/29 12:43:40;;;;;;;11.73;4.63;;;;;;;;;;5121107;28;20078;-65
2023/12/29 12:46:08;;;;;;;11.45;3.90;;;;;;;;;;5119116;28;20071;-66
2023/12/29 12:48:42;;;;;;;18.08;5.22;;;;;;;;;;5119471;28;20068;-65
2023/12/29 12:51:08;;;;;;;13.50;4.53;;;;;;;;;;5119694;28;20533;-65
2023/12/29 12:53:35;;;;;;;9.30;4.25;;;;;;;;;;5099750;28;20512;-65
2023/12/29 12:56:03;;;;;;;12.50;3.78;;;;;;;;;;5120174;28;20047;-63
2023/12/29 12:58:30;;;;;;;15.52;4.78;;;;;;;;;;5068913;27;20055;-65
2023/12/29 13:00:58;;;;;;;12.45;4.28;;;;;;;;;;5125476;27;20047;-64
2023/12/29 13:03:24;;;;;;;11.75;4.10;;;;;;;;;;5123109;27;20058;-65
2023/12/29 13:05:51;;;;;;;13.60;4.32;;;;;;;;;;5105669;27;20126;-64
2023/12/29 13:08:17;;;;;;;12.30;4.13;;;;;;;;;;5122829;27;20575;-64
2023/12/29 13:10:43;;;;;;;13.50;4.20;;;;;;;;;;5121738;27;20047;-65
2023/12/29 13:13:11;;;;;;;12.20;4.35;;;;;;;;;;5123938;27;20114;-65
2023/12/29 13:15:45;;;;;;;11.45;4.32;;;;;;;;;;5124076;27;20050;-66
2023/12/29 13:18:11;;;;;;;10.20;4.55;;;;;;;;;;5124058;27;20402;-66
2023/12/29 13:20:48;;;;;;;18.10;4.65;;;;;;;;;;5125774;27;20135;-65
2023/12/29 13:23:14;;;;;;;17.45;4.70;;;;;;;;;;5105378;27;20109;-64
2023/12/29 13:25:43;;;;;;;12.25;4.55;;;;;;;;;;5123966;27;20502;-66
2023/12/29 13:28:10;;;;;;;10.77;3.90;;;;;;;;;;5122363;27;20404;-64
2023/12/29 13:30:37;;;;;;;16.42;3.97;;;;;;;;;;5104266;27;20075;-66
2023/12/29 13:33:26;;;;;;;14.82;4.38;;;;;;;;;;5125041;27;20332;-65
2023/12/29 13:35:56;;;;;;;10.05;4.45;;;;;;;;;;5110291;27;20051;-64
2023/12/29 13:38:26;;;;;;;11.70;4.35;;;;;;;;;;5121959;27;20414;-64
2023/12/29 13:41:21;;;;;;;12.32;4.50;;;;;;;;;;5123073;27;20035;-64
2023/12/29 13:43:48;;;;;;;9.70;4.10;;;;;;;;;;5103678;27;20062;-65
2023/12/29 13:46:16;;;;;;;18.13;4.75;;;;;;;;;;5124791;27;20172;-67
2023/12/29 13:48:43;;;;;;;9.23;3.90;;;;;;;;;;5106034;27;20080;-65
2023/12/29 13:51:09;;;;;;;9.10;3.10;;;;;;;;;;5105077;27;20183;-65
2023/12/29 13:53:36;;;;;;;10.50;3.88;;;;;;;;;;5122009;27;20039;-64
2023/12/29 13:56:11;;;;;;;11.27;3.83;;;;;;;;;;5122616;27;20063;-65
2023/12/29 13:58:38;;;;;;;12.98;4.55;;;;;;;;;;5123482;27;20047;-64
2023/12/29 14:01:07;;;;;;;9.23;4.05;;;;;;;;;;5123797;27;20398;-64
2023/12/29 14:03:52;;;;;;;11.75;4.45;;;;;;;;;;5121806;27;20054;-64
2023/12/29 14:06:30;;;;;;;8.93;3.38;;;;;;;;;;5124051;27;20046;-64
2023/12/29 14:08:56;;;;;;;10.25;4.80;;;;;;;;;;5116451;27;20031;-65
2023/12/29 14:11:22;;;;;;;13.00;4.28;;;;;;;;;;5122335;27;20039;-64
2023/12/29 14:13:49;;;;;;;12.23;4.93;;;;;;;;;;5120883;27;20043;-65
2023/12/29 14:16:19;;;;;;;16.42;4.35;;;;;;;;;;5120700;27;20049;-65
2023/12/29 14:18:49;;;;;;;10.95;3.35;;;;;;;;;;5121804;27;20043;-64
2023/12/29 14:21:25;;;;;;;12.40;3.88;;;;;;;;;;5121020;27;20027;-64
2023/12/29 14:24:00;;;;;;;12.20;3.97;;;;;;;;;;5122087;27;20442;-63
2023/12/29 14:26:26;;;;;;;13.63;4.10;;;;;;;;;;5121472;27;20035;-65
2023/12/29 14:29:06;;;;;;;14.52;4.57;;;;;;;;;;5120961;27;20142;-65
2023/12/29 14:31:36;;;;;;;9.20;4.63;;;;;;;;;;5120766;27;20035;-65
2023/12/29 14:34:03;;;;;;;15.48;5.60;;;;;;;;;;5120788;27;20035;-63